Time;durP1;ratioP1;P1;durP2;ratioP2;P2;SDS_P1;SDS_P2;PMS_P1;PMS_P2;Temp;Humidity;BMP_temperature;BMP_pressure;BME280_temperature;BME280_humidity;BME280_pressure;Samples;Min_cycle;Max_cycle;Signal;HPM_P1;HPM_P2
2022/04/15 00:00:24;;;;;;;64.43;35.60;;;;;;;;;;4936322;29;20068;-50
2022/04/15 00:02:50;;;;;;;65.88;35.50;;;;;;;;;;4936003;29;20485;-49
2022/04/15 00:05:36;;;;;;;67.88;36.10;;;;;;;;;;4936059;29;20047;-53
2022/04/15 00:08:06;;;;;;;60.50;31.48;;;;;;;;;;4935977;29;20044;-52
2022/04/15 00:10:32;;;;;;;55.13;30.50;;;;;;;;;;4936281;29;20062;-52
2022/04/15 00:12:59;;;;;;;48.70;26.75;;;;;;;;;;4936042;29;20062;-48
2022/04/15 00:15:26;;;;;;;44.83;25.38;;;;;;;;;;4936134;29;20139;-50
2022/04/15 00:17:52;;;;;;;49.55;23.85;;;;;;;;;;4935890;29;20377;-50
2022/04/15 00:20:18;;;;;;;40.70;22.55;;;;;;;;;;4935611;29;20024;-49
2022/04/15 00:22:45;;;;;;;36.60;20.30;;;;;;;;;;4936168;29;20031;-49
2022/04/15 00:25:11;;;;;;;28.90;15.77;;;;;;;;;;4935541;29;20384;-51
2022/04/15 00:27:38;;;;;;;24.65;13.60;;;;;;;;;;4936059;29;20027;-51
2022/04/15 00:30:05;;;;;;;28.10;13.40;;;;;;;;;;4935834;29;20028;-53
2022/04/15 00:32:31;;;;;;;20.67;10.25;;;;;;;;;;4937761;29;20110;-50
2022/04/15 00:34:58;;;;;;;21.45;10.18;;;;;;;;;;4939828;29;20028;-52
2022/04/15 00:37:24;;;;;;;12.77;7.03;;;;;;;;;;4939636;29;20036;-53
2022/04/15 00:39:51;;;;;;;11.88;5.97;;;;;;;;;;4939339;29;20020;-49
2022/04/15 00:42:17;;;;;;;12.68;6.93;;;;;;;;;;4939752;29;20027;-52
2022/04/15 00:44:43;;;;;;;12.23;5.38;;;;;;;;;;4939641;29;20107;-50
2022/04/15 00:47:12;;;;;;;9.27;5.78;;;;;;;;;;4938889;29;20493;-51
2022/04/15 00:49:38;;;;;;;12.38;6.22;;;;;;;;;;4939522;29;20028;-51
2022/04/15 00:52:06;;;;;;;12.38;6.20;;;;;;;;;;4939489;29;20048;-48
2022/04/15 00:54:34;;;;;;;14.98;6.53;;;;;;;;;;4939308;29;20034;-48
2022/04/15 00:57:01;;;;;;;9.93;5.18;;;;;;;;;;4939254;29;20478;-48
2022/04/15 00:59:27;;;;;;;10.77;5.03;;;;;;;;;;4939332;29;20444;-53
2022/04/15 01:01:53;;;;;;;12.63;5.10;;;;;;;;;;4938771;29;20031;-49
2022/04/15 01:04:21;;;;;;;9.60;4.63;;;;;;;;;;4939571;29;20023;-49
2022/04/15 01:06:48;;;;;;;12.10;5.70;;;;;;;;;;4939179;29;20039;-49
2022/04/15 01:09:15;;;;;;;7.47;4.57;;;;;;;;;;4938892;29;20027;-52
2022/04/15 01:11:43;;;;;;;7.07;3.60;;;;;;;;;;4939464;29;20067;-47
2022/04/15 01:14:10;;;;;;;8.48;3.97;;;;;;;;;;4938485;29;20512;-49
2022/04/15 01:16:36;;;;;;;8.18;4.68;;;;;;;;;;4938973;29;20031;-50
2022/04/15 01:19:03;;;;;;;12.00;4.90;;;;;;;;;;4938755;29;20535;-51
2022/04/15 01:21:32;;;;;;;9.50;4.30;;;;;;;;;;4938409;29;20024;-52
2022/04/15 01:23:58;;;;;;;13.45;4.68;;;;;;;;;;4939136;29;20079;-53
2022/04/15 01:26:24;;;;;;;10.63;5.10;;;;;;;;;;4938862;29;20034;-51
2022/04/15 01:28:50;;;;;;;15.30;5.63;;;;;;;;;;4938400;29;20469;-53
2022/04/15 01:31:16;;;;;;;14.25;5.90;;;;;;;;;;4938825;29;20078;-51
2022/04/15 01:33:42;;;;;;;16.52;7.65;;;;;;;;;;4938839;29;20066;-52
2022/04/15 01:36:09;;;;;;;20.52;10.98;;;;;;;;;;4938360;29;20495;-53
2022/04/15 01:38:36;;;;;;;25.98;14.75;;;;;;;;;;4938420;29;20480;-50
2022/04/15 01:41:02;;;;;;;33.38;16.73;;;;;;;;;;4938315;29;20111;-50
2022/04/15 01:43:28;;;;;;;30.75;18.48;;;;;;;;;;4937231;29;20481;-50
2022/04/15 01:45:54;;;;;;;39.05;21.55;;;;;;;;;;4938557;29;20024;-48
2022/04/15 01:48:20;;;;;;;39.15;20.13;;;;;;;;;;4938423;29;20122;-48
2022/04/15 01:50:47;;;;;;;37.38;19.52;;;;;;;;;;4938148;29;20020;-48
2022/04/15 01:53:13;;;;;;;37.35;18.45;;;;;;;;;;4938999;29;20474;-48
2022/04/15 01:55:39;;;;;;;30.85;17.08;;;;;;;;;;4938072;29;20082;-49
2022/04/15 01:58:05;;;;;;;28.95;16.60;;;;;;;;;;4937552;29;20027;-48
2022/04/15 02:00:32;;;;;;;24.98;15.07;;;;;;;;;;4938335;29;20370;-48
2022/04/15 02:02:58;;;;;;;25.55;14.75;;;;;;;;;;4937665;29;20473;-48
2022/04/15 02:05:24;;;;;;;25.73;14.32;;;;;;;;;;4938205;29;20023;-48
2022/04/15 02:07:50;;;;;;;24.73;14.50;;;;;;;;;;4937832;29;20126;-47
2022/04/15 02:10:16;;;;;;;26.55;12.68;;;;;;;;;;4937971;29;20417;-48
2022/04/15 02:12:42;;;;;;;20.30;12.00;;;;;;;;;;4937824;29;20118;-49
2022/04/15 02:15:08;;;;;;;22.35;11.02;;;;;;;;;;4938059;29;20032;-49
2022/04/15 02:17:35;;;;;;;19.30;10.73;;;;;;;;;;4937694;29;20032;-47
2022/04/15 02:20:01;;;;;;;22.75;11.02;;;;;;;;;;4937945;29;20027;-49
2022/04/15 02:22:27;;;;;;;22.63;11.75;;;;;;;;;;4937509;29;20075;-49
2022/04/15 02:24:53;;;;;;;24.77;12.40;;;;;;;;;;4937479;29;20034;-48
2022/04/15 02:27:20;;;;;;;21.60;12.70;;;;;;;;;;4937623;29;20047;-49
2022/04/15 02:29:46;;;;;;;24.30;13.95;;;;;;;;;;4938213;29;20042;-52
2022/04/15 02:32:12;;;;;;;30.58;16.65;;;;;;;;;;4937637;29;20028;-49
2022/04/15 02:34:38;;;;;;;29.50;14.98;;;;;;;;;;4937610;29;20051;-50
2022/04/15 02:37:04;;;;;;;50.13;18.67;;;;;;;;;;4937544;29;20115;-50
2022/04/15 02:39:32;;;;;;;38.63;20.25;;;;;;;;;;4937257;29;20027;-49
2022/04/15 02:42:00;;;;;;;30.83;17.00;;;;;;;;;;4937492;29;20035;-50
2022/04/15 02:44:26;;;;;;;26.98;16.83;;;;;;;;;;4937396;29;20062;-49
2022/04/15 02:46:54;;;;;;;37.25;20.42;;;;;;;;;;4936984;29;20035;-51
2022/04/15 02:49:20;;;;;;;29.40;16.90;;;;;;;;;;4937095;29;20560;-52
2022/04/15 02:51:46;;;;;;;32.47;17.25;;;;;;;;;;4936923;29;20048;-50
2022/04/15 02:54:12;;;;;;;31.50;18.73;;;;;;;;;;4936855;29;20066;-48
2022/04/15 02:56:38;;;;;;;34.65;18.30;;;;;;;;;;4936984;29;20111;-49
2022/04/15 02:59:05;;;;;;;39.47;16.45;;;;;;;;;;4936892;29;20026;-50
2022/04/15 03:01:31;;;;;;;42.10;16.88;;;;;;;;;;4936820;29;20407;-48
2022/04/15 03:03:57;;;;;;;46.80;17.63;;;;;;;;;;4937104;29;20038;-49
2022/04/15 03:06:23;;;;;;;37.33;14.32;;;;;;;;;;4936485;29;20032;-47
2022/04/15 03:08:49;;;;;;;25.30;11.43;;;;;;;;;;4936951;29;20178;-47
2022/04/15 03:11:15;;;;;;;28.63;11.48;;;;;;;;;;4936876;29;20055;-53
2022/04/15 03:13:41;;;;;;;30.60;10.30;;;;;;;;;;4936465;29;20024;-55
2022/04/15 03:16:08;;;;;;;25.58;10.20;;;;;;;;;;4936694;29;20118;-54
2022/04/15 03:18:34;;;;;;;27.50;10.13;;;;;;;;;;4936801;29;20035;-54
2022/04/15 03:21:00;;;;;;;21.65;9.27;;;;;;;;;;4936301;29;20034;-55
2022/04/15 03:23:26;;;;;;;42.58;18.50;;;;;;;;;;4936818;29;20106;-53
2022/04/15 03:25:52;;;;;;;29.10;14.75;;;;;;;;;;4936732;29;20027;-54
2022/04/15 03:28:20;;;;;;;38.42;16.00;;;;;;;;;;4935931;29;20107;-47
2022/04/15 03:30:46;;;;;;;31.35;15.82;;;;;;;;;;4935340;29;20054;-53
2022/04/15 03:33:13;;;;;;;30.35;16.30;;;;;;;;;;4936659;29;20392;-56
2022/04/15 03:35:39;;;;;;;31.27;17.25;;;;;;;;;;4936075;29;20028;-53
2022/04/15 03:38:05;;;;;;;33.35;16.23;;;;;;;;;;4936582;29;20039;-54
2022/04/15 03:40:31;;;;;;;33.58;17.88;;;;;;;;;;4936324;29;20024;-53
2022/04/15 03:42:57;;;;;;;27.33;16.95;;;;;;;;;;4935699;29;20024;-51
2022/04/15 03:45:24;;;;;;;33.25;18.50;;;;;;;;;;4935215;29;20488;-51
2022/04/15 03:47:51;;;;;;;39.05;20.05;;;;;;;;;;4935997;29;20072;-49
2022/04/15 03:50:18;;;;;;;30.50;18.33;;;;;;;;;;4935960;29;20030;-54
2022/04/15 03:52:46;;;;;;;32.55;17.05;;;;;;;;;;4936249;29;20050;-47
2022/04/15 03:55:19;;;;;;;34.88;18.70;;;;;;;;;;4933879;29;20036;-49
2022/04/15 03:57:46;;;;;;;35.58;18.85;;;;;;;;;;4934421;29;20425;-46
2022/04/15 04:00:14;;;;;;;39.50;17.52;;;;;;;;;;4934468;29;20078;-51
2022/04/15 04:02:43;;;;;;;30.55;17.17;;;;;;;;;;4933836;29;20023;-52
2022/04/15 04:05:09;;;;;;;32.20;16.52;;;;;;;;;;4934611;29;20023;-50
2022/04/15 04:07:35;;;;;;;33.88;18.25;;;;;;;;;;4938190;29;20042;-51
2022/04/15 04:10:02;;;;;;;29.63;16.98;;;;;;;;;;4939865;29;20369;-53
2022/04/15 04:12:33;;;;;;;37.72;15.23;;;;;;;;;;4940229;29;20023;-51
2022/04/15 04:14:59;;;;;;;29.65;14.50;;;;;;;;;;4940099;29;20114;-47
2022/04/15 04:17:25;;;;;;;33.95;14.13;;;;;;;;;;4939797;29;20032;-52
2022/04/15 04:19:52;;;;;;;30.33;15.60;;;;;;;;;;4939913;29;20489;-53
2022/04/15 04:22:19;;;;;;;36.05;15.35;;;;;;;;;;4939498;29;20028;-49
2022/04/15 04:24:45;;;;;;;26.13;14.48;;;;;;;;;;4939387;29;20024;-52
2022/04/15 04:27:11;;;;;;;30.65;14.77;;;;;;;;;;4939698;29;20035;-52
2022/04/15 04:29:37;;;;;;;31.10;14.63;;;;;;;;;;4939610;29;20028;-51
2022/04/15 04:32:03;;;;;;;32.90;15.13;;;;;;;;;;4939376;29;20028;-53
2022/04/15 04:34:29;;;;;;;30.63;14.38;;;;;;;;;;4939878;29;20024;-55
2022/04/15 04:36:55;;;;;;;43.58;15.48;;;;;;;;;;4939191;29;20024;-54
2022/04/15 04:39:25;;;;;;;39.40;15.70;;;;;;;;;;4939690;29;20040;-53
2022/04/15 04:41:52;;;;;;;34.75;16.35;;;;;;;;;;4939653;29;20024;-53
2022/04/15 04:44:18;;;;;;;43.83;19.15;;;;;;;;;;4936721;29;20039;-55
2022/04/15 04:46:44;;;;;;;43.00;20.48;;;;;;;;;;4939356;29;20023;-54
2022/04/15 04:49:11;;;;;;;47.88;21.23;;;;;;;;;;4939248;29;20067;-53
2022/04/15 04:51:37;;;;;;;47.22;20.58;;;;;;;;;;4938896;29;20063;-52
2022/04/15 04:54:03;;;;;;;40.70;19.70;;;;;;;;;;4939532;29;20098;-50
2022/04/15 04:56:29;;;;;;;44.00;19.15;;;;;;;;;;4939326;29;20035;-48
2022/04/15 04:58:55;;;;;;;42.95;18.55;;;;;;;;;;4939049;29;20027;-47
2022/04/15 05:01:21;;;;;;;53.03;19.90;;;;;;;;;;4939433;29;20028;-50
2022/04/15 05:03:48;;;;;;;45.97;19.60;;;;;;;;;;4939115;29;20034;-51
2022/04/15 05:06:14;;;;;;;47.83;18.63;;;;;;;;;;4938661;29;20035;-54
2022/04/15 05:08:40;;;;;;;45.08;19.63;;;;;;;;;;4939131;29;20038;-54
2022/04/15 05:11:06;;;;;;;49.40;20.55;;;;;;;;;;4938383;29;20030;-48
2022/04/15 05:13:32;;;;;;;46.25;20.65;;;;;;;;;;4938130;29;20024;-50
2022/04/15 05:15:58;;;;;;;48.72;21.73;;;;;;;;;;4938365;29;20512;-47
2022/04/15 05:18:24;;;;;;;51.30;25.08;;;;;;;;;;4937287;29;20031;-51
2022/04/15 05:20:50;;;;;;;58.17;22.98;;;;;;;;;;4938272;29;20024;-52
2022/04/15 05:23:17;;;;;;;54.10;23.80;;;;;;;;;;4938599;29;20030;-51
2022/04/15 05:25:43;;;;;;;53.63;20.52;;;;;;;;;;4938781;29;20067;-50
2022/04/15 05:28:09;;;;;;;52.38;21.35;;;;;;;;;;4938233;29;20043;-53
2022/04/15 05:30:35;;;;;;;57.22;23.40;;;;;;;;;;4937565;29;20159;-51
2022/04/15 05:33:01;;;;;;;48.38;20.77;;;;;;;;;;4938444;29;20347;-52
2022/04/15 05:35:27;;;;;;;49.58;21.05;;;;;;;;;;4938094;29;20020;-50
2022/04/15 05:37:53;;;;;;;46.65;20.30;;;;;;;;;;4938712;29;20412;-54
2022/04/15 05:40:20;;;;;;;47.53;20.75;;;;;;;;;;4937859;29;20070;-54
2022/04/15 05:42:46;;;;;;;44.20;19.42;;;;;;;;;;4938353;29;20082;-49
2022/04/15 05:45:12;;;;;;;40.15;19.85;;;;;;;;;;4938192;29;20035;-48
2022/04/15 05:47:39;;;;;;;50.78;21.15;;;;;;;;;;4937823;29;20032;-51
2022/04/15 05:50:06;;;;;;;35.65;16.88;;;;;;;;;;4937771;29;20040;-51
2022/04/15 05:52:33;;;;;;;39.50;18.38;;;;;;;;;;4936869;29;20058;-47
2022/04/15 05:54:59;;;;;;;38.25;18.33;;;;;;;;;;4937762;29;20043;-48
2022/04/15 05:57:25;;;;;;;34.60;18.13;;;;;;;;;;4937749;29;20032;-54
2022/04/15 05:59:51;;;;;;;34.10;17.20;;;;;;;;;;4938132;29;20030;-49
2022/04/15 06:02:18;;;;;;;45.75;19.00;;;;;;;;;;4937033;29;20034;-52
2022/04/15 06:04:44;;;;;;;45.60;19.17;;;;;;;;;;4937099;29;20071;-47
2022/04/15 06:07:10;;;;;;;44.70;20.25;;;;;;;;;;4937581;29;20031;-51
2022/04/15 06:09:36;;;;;;;44.88;21.67;;;;;;;;;;4937577;29;20050;-50
2022/04/15 06:12:02;;;;;;;48.25;21.45;;;;;;;;;;4937671;29;20091;-49
2022/04/15 06:14:33;;;;;;;45.47;21.23;;;;;;;;;;4938060;29;20032;-47
2022/04/15 06:16:59;;;;;;;46.13;22.45;;;;;;;;;;4937836;29;20034;-52
2022/04/15 06:19:25;;;;;;;45.95;23.13;;;;;;;;;;4938168;29;20050;-49
2022/04/15 06:21:52;;;;;;;43.17;21.75;;;;;;;;;;4937840;29;20451;-50
2022/04/15 06:24:18;;;;;;;47.53;21.88;;;;;;;;;;4938138;29;20027;-49
2022/04/15 06:26:44;;;;;;;42.28;24.85;;;;;;;;;;4937044;29;20022;-50
2022/04/15 06:29:10;;;;;;;43.17;23.50;;;;;;;;;;4936893;29;20497;-51
2022/04/15 06:31:37;;;;;;;46.58;23.92;;;;;;;;;;4937298;29;20024;-49
2022/04/15 06:34:03;;;;;;;51.35;25.60;;;;;;;;;;4937340;29;20110;-51
2022/04/15 06:36:29;;;;;;;56.45;25.38;;;;;;;;;;4937202;29;20028;-50
2022/04/15 06:38:55;;;;;;;49.92;25.13;;;;;;;;;;4936336;29;20035;-53
2022/04/15 06:41:21;;;;;;;108.43;57.05;;;;;;;;;;4937475;29;20024;-52
2022/04/15 06:43:48;;;;;;;53.38;24.17;;;;;;;;;;4936938;29;20026;-52
2022/04/15 06:46:14;;;;;;;52.40;29.20;;;;;;;;;;4936264;29;20015;-49
2022/04/15 06:48:40;;;;;;;55.25;24.65;;;;;;;;;;4937899;29;20031;-50
2022/04/15 06:51:06;;;;;;;54.28;23.60;;;;;;;;;;4936775;29;20020;-56
2022/04/15 06:53:32;;;;;;;46.55;21.70;;;;;;;;;;4937434;29;20052;-48
2022/04/15 06:56:00;;;;;;;38.25;21.67;;;;;;;;;;4937327;29;20019;-54
2022/04/15 06:58:26;;;;;;;41.47;20.05;;;;;;;;;;4937126;29;20035;-53
2022/04/15 07:00:53;;;;;;;40.60;20.58;;;;;;;;;;4937163;29;20020;-52
2022/04/15 07:03:19;;;;;;;27.52;13.88;;;;;;;;;;4937326;29;20422;-49
2022/04/15 07:05:46;;;;;;;38.63;16.25;;;;;;;;;;4936494;29;20024;-52
2022/04/15 07:08:12;;;;;;;37.22;17.98;;;;;;;;;;4936930;29;20055;-51
2022/04/15 07:10:39;;;;;;;40.33;16.48;;;;;;;;;;4936957;29;20031;-52
2022/04/15 07:13:05;;;;;;;32.38;17.05;;;;;;;;;;4936361;29;20024;-49
2022/04/15 07:15:31;;;;;;;32.35;18.08;;;;;;;;;;4937108;29;20369;-51
2022/04/15 07:17:57;;;;;;;35.00;16.95;;;;;;;;;;4936367;29;20104;-54
2022/04/15 07:20:24;;;;;;;35.58;17.42;;;;;;;;;;4937181;29;20060;-48
2022/04/15 07:22:56;;;;;;;33.10;17.95;;;;;;;;;;4936396;29;20059;-51
2022/04/15 07:25:23;;;;;;;42.60;20.73;;;;;;;;;;4936235;29;20031;-50
2022/04/15 07:27:49;;;;;;;42.80;21.50;;;;;;;;;;4936602;29;20098;-50
2022/04/15 07:30:15;;;;;;;38.08;17.27;;;;;;;;;;4936464;29;20028;-53
2022/04/15 07:32:41;;;;;;;31.45;16.30;;;;;;;;;;4936386;29;20038;-49
2022/04/15 07:35:07;;;;;;;34.85;15.43;;;;;;;;;;4936682;29;20468;-51
2022/04/15 07:37:34;;;;;;;25.02;15.48;;;;;;;;;;4936562;29;20024;-52
2022/04/15 07:40:00;;;;;;;29.65;15.95;;;;;;;;;;4936367;29;20028;-48
2022/04/15 07:42:26;;;;;;;28.60;18.15;;;;;;;;;;4935548;29;20478;-52
2022/04/15 07:44:52;;;;;;;36.38;18.85;;;;;;;;;;4936049;29;20074;-51
2022/04/15 07:47:18;;;;;;;44.60;18.58;;;;;;;;;;4936184;29;20063;-49
2022/04/15 07:49:44;;;;;;;38.53;21.20;;;;;;;;;;4936460;29;20060;-50
2022/04/15 07:52:10;;;;;;;37.25;18.83;;;;;;;;;;4936315;29;20052;-50
2022/04/15 07:54:36;;;;;;;44.03;19.85;;;;;;;;;;4935863;29;20466;-50
2022/04/15 07:57:03;;;;;;;40.35;19.23;;;;;;;;;;4936119;29;20036;-50
2022/04/15 07:59:30;;;;;;;38.30;18.48;;;;;;;;;;4936341;29;20100;-52
2022/04/15 08:01:58;;;;;;;36.55;18.65;;;;;;;;;;4935720;29;20487;-54
2022/04/15 08:04:24;;;;;;;37.35;18.48;;;;;;;;;;4936143;29;20030;-51
2022/04/15 08:06:51;;;;;;;35.45;18.13;;;;;;;;;;4936273;29;20078;-51
2022/04/15 08:09:17;;;;;;;34.35;17.58;;;;;;;;;;4936280;29;20042;-49
2022/04/15 08:11:43;;;;;;;41.45;18.42;;;;;;;;;;4936206;29;20023;-50
2022/04/15 08:14:09;;;;;;;27.73;15.38;;;;;;;;;;4935982;29;20026;-51
2022/04/15 08:16:36;;;;;;;52.60;24.92;;;;;;;;;;4935955;29;20389;-49
2022/04/15 08:19:02;;;;;;;40.35;21.85;;;;;;;;;;4936447;29;20031;-54
2022/04/15 08:21:29;;;;;;;32.67;17.35;;;;;;;;;;4936095;29;20032;-50
2022/04/15 08:23:55;;;;;;;22.33;13.35;;;;;;;;;;4936714;29;20369;-49
2022/04/15 08:26:21;;;;;;;26.98;11.73;;;;;;;;;;4935905;29;20024;-50
2022/04/15 08:28:47;;;;;;;23.98;12.70;;;;;;;;;;4935984;29;20115;-50
2022/04/15 08:31:13;;;;;;;34.53;12.85;;;;;;;;;;4936096;29;20027;-50
2022/04/15 08:33:40;;;;;;;25.63;14.00;;;;;;;;;;4936154;29;20461;-51
2022/04/15 08:36:07;;;;;;;49.65;14.05;;;;;;;;;;4935285;29;20474;-53
2022/04/15 08:38:33;;;;;;;27.23;14.07;;;;;;;;;;4936026;29;20082;-49
2022/04/15 08:40:59;;;;;;;26.55;13.10;;;;;;;;;;4935719;29;20098;-50
2022/04/15 08:43:26;;;;;;;27.77;13.38;;;;;;;;;;4935510;29;20027;-50
2022/04/15 08:45:53;;;;;;;26.77;12.32;;;;;;;;;;4935677;29;20032;-47
2022/04/15 08:48:19;;;;;;;24.67;12.38;;;;;;;;;;4936213;29;20035;-48
2022/04/15 08:50:45;;;;;;;30.23;13.55;;;;;;;;;;4935706;29;20036;-51
2022/04/15 08:53:11;;;;;;;24.75;12.80;;;;;;;;;;4937209;29;20503;-48
2022/04/15 08:55:38;;;;;;;25.27;12.18;;;;;;;;;;4939728;29;20035;-51
2022/04/15 08:58:04;;;;;;;18.80;10.20;;;;;;;;;;4939117;29;20028;-52
2022/04/15 09:00:30;;;;;;;25.83;14.50;;;;;;;;;;4939065;29;20032;-47
2022/04/15 09:02:58;;;;;;;22.50;10.48;;;;;;;;;;4938621;29;20054;-49
2022/04/15 09:05:26;;;;;;;21.00;10.18;;;;;;;;;;4939490;29;20035;-48
2022/04/15 09:08:11;;;;;;;22.95;10.63;;;;;;;;;;4939188;29;20027;-50
2022/04/15 09:10:39;;;;;;;20.95;10.02;;;;;;;;;;4938903;29;20126;-50
2022/04/15 09:13:08;;;;;;;23.70;8.50;;;;;;;;;;4939441;29;20082;-51
2022/04/15 09:15:35;;;;;;;13.57;7.22;;;;;;;;;;4939107;29;20020;-49
2022/04/15 09:18:01;;;;;;;19.15;7.40;;;;;;;;;;4939076;29;20047;-49
2022/04/15 09:20:33;;;;;;;13.27;6.50;;;;;;;;;;4939111;29;20023;-49
2022/04/15 09:22:59;;;;;;;;;;;;;;;;;;4939371;29;20028;-51
2022/04/15 09:25:26;;;;;;;9.65;6.10;;;;;;;;;;4938668;29;19906;-50
2022/04/15 09:27:56;;;;;;;12.90;6.28;;;;;;;;;;4938401;29;20039;-53
2022/04/15 09:30:42;;;;;;;11.27;6.35;;;;;;;;;;4938442;29;20377;-53
2022/04/15 09:33:10;;;;;;;10.50;5.63;;;;;;;;;;4938369;29;20458;-51
2022/04/15 09:35:36;;;;;;;7.30;5.50;;;;;;;;;;4938181;29;20036;-52
2022/04/15 09:38:04;;;;;;;12.85;6.30;;;;;;;;;;4936688;29;20509;-46
2022/04/15 09:40:35;;;;;;;9.70;5.25;;;;;;;;;;4938794;29;20063;-52
2022/04/15 09:43:02;;;;;;;7.20;5.45;;;;;;;;;;4938462;29;20024;-50
2022/04/15 09:45:34;;;;;;;7.68;5.10;;;;;;;;;;4938396;29;20367;-53
2022/04/15 09:48:04;;;;;;;12.15;5.00;;;;;;;;;;4939153;29;20024;-50
2022/04/15 09:50:32;;;;;;;10.97;4.93;;;;;;;;;;4938592;29;20035;-51
2022/04/15 09:53:17;;;;;;;7.07;4.57;;;;;;;;;;4938122;29;20398;-52
2022/04/15 09:55:46;;;;;;;9.15;4.50;;;;;;;;;;4937613;29;20034;-51
2022/04/15 09:58:13;;;;;;;6.88;4.07;;;;;;;;;;4937457;29;20039;-50
2022/04/15 10:00:40;;;;;;;8.80;4.40;;;;;;;;;;4937778;29;20098;-46
2022/04/15 10:03:08;;;;;;;10.50;5.35;;;;;;;;;;4938308;29;20039;-47
2022/04/15 10:05:35;;;;;;;10.02;4.85;;;;;;;;;;4937534;29;20066;-47
2022/04/15 10:08:02;;;;;;;7.35;4.45;;;;;;;;;;4937808;29;20027;-47
2022/04/15 10:10:29;;;;;;;9.32;4.32;;;;;;;;;;4938113;29;20036;-49
2022/04/15 10:12:58;;;;;;;10.05;5.28;;;;;;;;;;4937578;29;20425;-50
2022/04/15 10:15:24;;;;;;;11.00;5.18;;;;;;;;;;4937837;29;20030;-48
2022/04/15 10:17:50;;;;;;;9.80;4.43;;;;;;;;;;4938051;29;20038;-48
2022/04/15 10:20:16;;;;;;;8.55;4.40;;;;;;;;;;4937915;29;20027;-47
2022/04/15 10:22:43;;;;;;;11.15;5.70;;;;;;;;;;4937955;29;20035;-49
2022/04/15 10:25:09;;;;;;;9.82;5.07;;;;;;;;;;4937951;29;20453;-48
2022/04/15 10:27:35;;;;;;;11.23;4.82;;;;;;;;;;4937149;29;20076;-52
2022/04/15 10:30:04;;;;;;;8.65;5.10;;;;;;;;;;4937826;29;20469;-48
2022/04/15 10:32:47;;;;;;;9.73;4.10;;;;;;;;;;4937924;29;20036;-51
2022/04/15 10:35:20;;;;;;;10.13;4.70;;;;;;;;;;4937096;29;20088;-48
2022/04/15 10:37:47;;;;;;;8.70;4.25;;;;;;;;;;4937357;29;20028;-47
2022/04/15 10:40:23;;;;;;;6.75;3.92;;;;;;;;;;4937591;29;20532;-50
2022/04/15 10:42:49;;;;;;;9.75;3.95;;;;;;;;;;4937230;29;20047;-50
2022/04/15 10:45:29;;;;;;;9.40;4.65;;;;;;;;;;4937091;29;20031;-49
2022/04/15 10:47:59;;;;;;;8.13;3.72;;;;;;;;;;4937051;29;20115;-48
2022/04/15 10:50:28;;;;;;;9.10;4.20;;;;;;;;;;4937178;29;20055;-50
2022/04/15 10:53:15;;;;;;;7.45;3.67;;;;;;;;;;4937539;29;20135;-52
2022/04/15 10:55:47;;;;;;;11.07;3.42;;;;;;;;;;4937124;29;20028;-49
2022/04/15 10:58:14;;;;;;;7.95;3.88;;;;;;;;;;4938114;29;20354;-50
2022/04/15 11:03:29;;;;;;;9.73;3.00;;;;;;;;;;4936691;29;20546;-52
2022/04/15 11:05:57;;;;;;;5.80;2.50;;;;;;;;;;4936916;29;20457;-50
2022/04/15 11:08:24;;;;;;;8.55;2.53;;;;;;;;;;4936854;29;20277;-51
2022/04/15 11:10:50;;;;;;;3.08;2.30;;;;;;;;;;4936880;29;20050;-49
2022/04/15 11:13:39;;;;;;;6.22;2.35;;;;;;;;;;4937057;29;20020;-51
2022/04/15 11:16:06;;;;;;;3.63;1.80;;;;;;;;;;4929104;29;20119;-49
2022/04/15 11:18:51;;;;;;;7.20;2.40;;;;;;;;;;4936651;29;20548;-49
2022/04/15 11:21:18;;;;;;;4.13;1.73;;;;;;;;;;4936560;29;20040;-49
2022/04/15 11:23:48;;;;;;;3.67;2.10;;;;;;;;;;4936796;29;20110;-50
2022/04/15 11:26:15;;;;;;;3.63;2.33;;;;;;;;;;4936776;29;20028;-50
2022/04/15 11:28:43;;;;;;;2.00;1.20;;;;;;;;;;4936691;29;20382;-50
2022/04/15 11:31:20;;;;;;;6.57;1.08;;;;;;;;;;4936300;29;20032;-49
2022/04/15 11:33:46;;;;;;;6.22;1.35;;;;;;;;;;4936775;29;20438;-52
2022/04/15 11:36:12;;;;;;;6.43;1.48;;;;;;;;;;4936470;29;20059;-52
2022/04/15 11:38:39;;;;;;;2.17;0.80;;;;;;;;;;4936348;29;20374;-54
2022/04/15 11:41:05;;;;;;;3.45;1.02;;;;;;;;;;4936503;29;20036;-49
2022/04/15 11:43:32;;;;;;;5.80;1.00;;;;;;;;;;4936186;29;20155;-50
2022/04/15 11:45:58;;;;;;;1.90;0.63;;;;;;;;;;4935971;29;20070;-52
2022/04/15 11:48:25;;;;;;;2.10;1.20;;;;;;;;;;4936520;29;20106;-52
2022/04/15 11:50:52;;;;;;;3.42;1.55;;;;;;;;;;4936190;29;20370;-49
2022/04/15 11:53:19;;;;;;;3.58;1.63;;;;;;;;;;4937077;29;20108;-51
2022/04/15 11:55:55;;;;;;;4.82;1.20;;;;;;;;;;4936254;29;20028;-50
2022/04/15 11:58:22;;;;;;;1.92;1.10;;;;;;;;;;4936184;29;20027;-50
2022/04/15 12:00:58;;;;;;;5.47;1.10;;;;;;;;;;4936744;29;20489;-51
2022/04/15 12:03:25;;;;;;;4.63;1.60;;;;;;;;;;4936452;29;20091;-51
2022/04/15 12:05:52;;;;;;;1.92;1.73;;;;;;;;;;4936410;29;20031;-52
2022/04/15 12:08:18;;;;;;;5.32;3.65;;;;;;;;;;4935807;29;20024;-49
2022/04/15 12:10:46;;;;;;;2.80;2.22;;;;;;;;;;4936094;29;20485;-50
2022/04/15 12:13:13;;;;;;;5.88;2.35;;;;;;;;;;4936215;29;20036;-51
2022/04/15 12:15:39;;;;;;;2.28;1.60;;;;;;;;;;4935959;29;20055;-53
2022/04/15 12:18:06;;;;;;;6.60;1.65;;;;;;;;;;4936403;29;20055;-51
2022/04/15 12:20:33;;;;;;;2.72;1.60;;;;;;;;;;4935981;29;20043;-53
2022/04/15 12:23:00;;;;;;;5.20;1.90;;;;;;;;;;4935895;29;20051;-50
2022/04/15 12:25:26;;;;;;;3.95;2.17;;;;;;;;;;4935838;29;20024;-46
2022/04/15 12:27:55;;;;;;;4.03;1.77;;;;;;;;;;4936838;29;20087;-51
2022/04/15 12:30:37;;;;;;;3.90;1.98;;;;;;;;;;4939955;29;20035;-53
2022/04/15 12:33:07;;;;;;;6.68;2.25;;;;;;;;;;4939351;29;20505;-52
2022/04/15 12:35:34;;;;;;;5.45;2.38;;;;;;;;;;4939905;29;20535;-48
2022/04/15 12:38:01;;;;;;;6.80;3.08;;;;;;;;;;4939905;29;20027;-51
2022/04/15 12:40:32;;;;;;;4.13;2.15;;;;;;;;;;4939537;29;20024;-49
2022/04/15 12:43:13;;;;;;;3.05;1.83;;;;;;;;;;4938814;29;20020;-52
2022/04/15 12:45:53;;;;;;;4.55;1.90;;;;;;;;;;4939723;29;20024;-49
2022/04/15 12:48:20;;;;;;;2.05;1.38;;;;;;;;;;4939010;29;20118;-48
2022/04/15 12:50:53;;;;;;;2.63;1.90;;;;;;;;;;4939596;29;20027;-53
2022/04/15 12:53:21;;;;;;;2.65;1.50;;;;;;;;;;4940237;29;20059;-47
2022/04/15 12:55:47;;;;;;;3.28;1.65;;;;;;;;;;4938964;29;20030;-52
2022/04/15 12:58:18;;;;;;;4.50;1.85;;;;;;;;;;4939253;29;20540;-51
2022/04/15 13:00:44;;;;;;;3.95;1.60;;;;;;;;;;4939648;29;20032;-51
2022/04/15 13:03:10;;;;;;;3.97;1.80;;;;;;;;;;4939180;29;20049;-52
2022/04/15 13:05:36;;;;;;;3.90;1.98;;;;;;;;;;4939192;29;20027;-49
2022/04/15 13:08:02;;;;;;;2.80;2.30;;;;;;;;;;4939187;29;20038;-49
2022/04/15 13:10:29;;;;;;;9.63;2.75;;;;;;;;;;4939288;29;20111;-46
2022/04/15 13:12:55;;;;;;;2.92;1.98;;;;;;;;;;4939285;29;20028;-49
2022/04/15 13:15:22;;;;;;;3.17;2.10;;;;;;;;;;4938907;29;20023;-51
2022/04/15 13:17:48;;;;;;;6.70;2.00;;;;;;;;;;4939056;29;20027;-49
2022/04/15 13:20:14;;;;;;;3.05;1.83;;;;;;;;;;4938861;29;20023;-49
2022/04/15 13:22:41;;;;;;;4.10;2.33;;;;;;;;;;4938558;29;20107;-51
2022/04/15 13:25:07;;;;;;;3.80;2.35;;;;;;;;;;4938991;29;20055;-54
2022/04/15 13:27:35;;;;;;;5.95;2.38;;;;;;;;;;4939221;29;20039;-53
2022/04/15 13:30:01;;;;;;;4.25;2.20;;;;;;;;;;4938358;29;20179;-49
2022/04/15 13:32:27;;;;;;;4.47;1.95;;;;;;;;;;4938635;29;20055;-52
2022/04/15 13:34:53;;;;;;;5.85;1.70;;;;;;;;;;4938841;29;20389;-52
2022/04/15 13:37:21;;;;;;;5.60;1.92;;;;;;;;;;4938255;29;20040;-50
2022/04/15 13:39:47;;;;;;;5.15;2.15;;;;;;;;;;4937247;29;20032;-51
2022/04/15 13:42:14;;;;;;;6.68;2.25;;;;;;;;;;4938652;29;20036;-54
2022/04/15 13:44:40;;;;;;;7.10;2.42;;;;;;;;;;4938417;29;20032;-51
2022/04/15 13:47:06;;;;;;;8.75;2.55;;;;;;;;;;4938759;29;20533;-52
2022/04/15 13:49:33;;;;;;;7.88;2.50;;;;;;;;;;4938382;29;20145;-52
2022/04/15 13:52:00;;;;;;;6.40;1.98;;;;;;;;;;4938059;29;20056;-50
2022/04/15 13:57:11;;;;;;;6.45;3.00;;;;;;;;;;4938019;29;20030;-52
2022/04/15 13:59:38;;;;;;;9.52;3.03;;;;;;;;;;4938415;29;20540;-48
2022/04/15 14:02:09;;;;;;;8.35;3.78;;;;;;;;;;4938297;29;20028;-49
2022/04/15 14:04:35;;;;;;;7.97;3.80;;;;;;;;;;4938203;29;20031;-52
2022/04/15 14:07:02;;;;;;;9.35;3.67;;;;;;;;;;4938192;29;20488;-50
2022/04/15 14:09:30;;;;;;;5.25;2.13;;;;;;;;;;4938027;29;20036;-52
2022/04/15 14:11:56;;;;;;;6.47;3.10;;;;;;;;;;4937997;29;20023;-49
2022/04/15 14:14:23;;;;;;;9.00;3.13;;;;;;;;;;4938170;29;20058;-52
2022/04/15 14:16:49;;;;;;;8.55;2.50;;;;;;;;;;4938413;29;20038;-52
2022/04/15 14:19:15;;;;;;;4.30;2.88;;;;;;;;;;4937690;29;20030;-52
2022/04/15 14:21:42;;;;;;;11.02;2.30;;;;;;;;;;4937990;29;20035;-47
2022/04/15 14:24:09;;;;;;;4.70;2.28;;;;;;;;;;4937404;29;20023;-49
2022/04/15 14:26:35;;;;;;;4.70;2.88;;;;;;;;;;4937158;29;20462;-52
2022/04/15 14:29:01;;;;;;;3.95;2.40;;;;;;;;;;4936914;29;20067;-53
2022/04/15 14:31:29;;;;;;;2.95;1.83;;;;;;;;;;4937158;29;20038;-52